sensor_id;sensor_type;location;lat;lon;timestamp;P1;durP1;ratioP1;P2;durP2;ratioP2
28246;SDS011;66191;53.178;22.058;2023-06-22T00:01:48;22.63;;;19.33;;
28246;SDS011;66191;53.178;22.058;2023-06-22T00:04:19;29.25;;;21.70;;
28246;SDS011;66191;53.178;22.058;2023-06-22T00:06:51;21.60;;;18.67;;
28246;SDS011;66191;53.178;22.058;2023-06-22T00:09:23;33.10;;;23.08;;
28246;SDS011;66191;53.178;22.058;2023-06-22T00:11:57;30.85;;;21.95;;
28246;SDS011;66191;53.178;22.058;2023-06-22T00:14:29;19.90;;;17.40;;
28246;SDS011;66191;53.178;22.058;2023-06-22T00:17:00;23.17;;;19.40;;
28246;SDS011;66191;53.178;22.058;2023-06-22T00:19:31;24.17;;;19.00;;
28246;SDS011;66191;53.178;22.058;2023-06-22T00:22:03;20.52;;;18.17;;
28246;SDS011;66191;53.178;22.058;2023-06-22T00:24:34;20.23;;;17.88;;
28246;SDS011;66191;53.178;22.058;2023-06-22T00:27:08;26.23;;;20.90;;
28246;SDS011;66191;53.178;22.058;2023-06-22T00:29:39;25.42;;;17.67;;
28246;SDS011;66191;53.178;22.058;2023-06-22T00:32:13;30.00;;;22.45;;
28246;SDS011;66191;53.178;22.058;2023-06-22T00:34:46;27.33;;;21.38;;
28246;SDS011;66191;53.178;22.058;2023-06-22T00:37:18;24.35;;;18.65;;
28246;SDS011;66191;53.178;22.058;2023-06-22T00:39:50;28.40;;;18.92;;
28246;SDS011;66191;53.178;22.058;2023-06-22T00:42:24;25.75;;;19.33;;
28246;SDS011;66191;53.178;22.058;2023-06-22T00:44:55;41.72;;;26.85;;
28246;SDS011;66191;53.178;22.058;2023-06-22T00:47:26;82.75;;;44.42;;
28246;SDS011;66191;53.178;22.058;2023-06-22T00:49:58;28.17;;;21.27;;
28246;SDS011;66191;53.178;22.058;2023-06-22T00:52:31;36.15;;;24.83;;
28246;SDS011;66191;53.178;22.058;2023-06-22T00:55:04;25.80;;;20.73;;
28246;SDS011;66191;53.178;22.058;2023-06-22T00:57:39;24.90;;;20.23;;
28246;SDS011;66191;53.178;22.058;2023-06-22T01:00:11;28.35;;;23.25;;
28246;SDS011;66191;53.178;22.058;2023-06-22T01:02:45;26.80;;;21.42;;
28246;SDS011;66191;53.178;22.058;2023-06-22T01:05:21;22.55;;;20.15;;
28246;SDS011;66191;53.178;22.058;2023-06-22T01:08:00;24.05;;;19.55;;
28246;SDS011;66191;53.178;22.058;2023-06-22T01:10:44;22.42;;;19.75;;
28246;SDS011;66191;53.178;22.058;2023-06-22T01:13:28;22.63;;;19.27;;
28246;SDS011;66191;53.178;22.058;2023-06-22T01:16:03;21.25;;;19.05;;
28246;SDS011;66191;53.178;22.058;2023-06-22T01:18:40;19.80;;;17.70;;
28246;SDS011;66191;53.178;22.058;2023-06-22T01:21:14;19.40;;;17.48;;
28246;SDS011;66191;53.178;22.058;2023-06-22T01:23:51;19.70;;;17.63;;
28246;SDS011;66191;53.178;22.058;2023-06-22T01:26:36;18.40;;;16.50;;
28246;SDS011;66191;53.178;22.058;2023-06-22T01:29:13;20.27;;;17.65;;
28246;SDS011;66191;53.178;22.058;2023-06-22T01:31:48;25.10;;;22.10;;
28246;SDS011;66191;53.178;22.058;2023-06-22T01:34:21;20.58;;;18.17;;
28246;SDS011;66191;53.178;22.058;2023-06-22T01:36:55;18.42;;;16.40;;
28246;SDS011;66191;53.178;22.058;2023-06-22T01:39:29;21.23;;;18.58;;
28246;SDS011;66191;53.178;22.058;2023-06-22T01:42:02;20.20;;;17.98;;
28246;SDS011;66191;53.178;22.058;2023-06-22T01:44:36;22.65;;;20.25;;
28246;SDS011;66191;53.178;22.058;2023-06-22T01:47:09;22.67;;;18.33;;
28246;SDS011;66191;53.178;22.058;2023-06-22T01:49:44;21.35;;;17.60;;
28246;SDS011;66191;53.178;22.058;2023-06-22T01:52:16;23.27;;;17.17;;
28246;SDS011;66191;53.178;22.058;2023-06-22T01:54:49;20.58;;;18.38;;
28246;SDS011;66191;53.178;22.058;2023-06-22T01:57:20;23.58;;;20.60;;
28246;SDS011;66191;53.178;22.058;2023-06-22T01:59:57;21.38;;;17.83;;
28246;SDS011;66191;53.178;22.058;2023-06-22T02:02:50;21.83;;;19.50;;
28246;SDS011;66191;53.178;22.058;2023-06-22T02:05:30;25.50;;;21.33;;
28246;SDS011;66191;53.178;22.058;2023-06-22T02:08:06;20.15;;;18.08;;
28246;SDS011;66191;53.178;22.058;2023-06-22T02:10:39;46.60;;;33.38;;
28246;SDS011;66191;53.178;22.058;2023-06-22T02:13:11;32.65;;;25.27;;
28246;SDS011;66191;53.178;22.058;2023-06-22T02:15:47;25.73;;;19.95;;
28246;SDS011;66191;53.178;22.058;2023-06-22T02:18:18;26.02;;;21.00;;
28246;SDS011;66191;53.178;22.058;2023-06-22T02:20:50;20.65;;;18.55;;
28246;SDS011;66191;53.178;22.058;2023-06-22T02:23:22;21.60;;;18.27;;
28246;SDS011;66191;53.178;22.058;2023-06-22T02:25:53;22.05;;;18.60;;
28246;SDS011;66191;53.178;22.058;2023-06-22T02:28:25;23.30;;;20.70;;
28246;SDS011;66191;53.178;22.058;2023-06-22T02:30:59;22.48;;;19.30;;
28246;SDS011;66191;53.178;22.058;2023-06-22T02:33:30;22.30;;;20.02;;
28246;SDS011;66191;53.178;22.058;2023-06-22T02:36:01;23.02;;;20.10;;
28246;SDS011;66191;53.178;22.058;2023-06-22T02:38:36;26.65;;;21.15;;
28246;SDS011;66191;53.178;22.058;2023-06-22T02:41:09;23.27;;;20.58;;
28246;SDS011;66191;53.178;22.058;2023-06-22T02:43:41;26.20;;;21.52;;
28246;SDS011;66191;53.178;22.058;2023-06-22T02:46:15;24.70;;;22.10;;
28246;SDS011;66191;53.178;22.058;2023-06-22T02:48:48;26.40;;;23.52;;
28246;SDS011;66191;53.178;22.058;2023-06-22T02:51:19;23.45;;;20.67;;
28246;SDS011;66191;53.178;22.058;2023-06-22T02:53:50;28.48;;;23.38;;
28246;SDS011;66191;53.178;22.058;2023-06-22T02:56:28;29.25;;;22.63;;
28246;SDS011;66191;53.178;22.058;2023-06-22T02:59:00;27.67;;;20.08;;
28246;SDS011;66191;53.178;22.058;2023-06-22T03:01:39;28.58;;;21.80;;
28246;SDS011;66191;53.178;22.058;2023-06-22T03:04:19;23.98;;;21.25;;
28246;SDS011;66191;53.178;22.058;2023-06-22T03:06:50;35.60;;;27.17;;
28246;SDS011;66191;53.178;22.058;2023-06-22T03:09:21;26.77;;;21.63;;
28246;SDS011;66191;53.178;22.058;2023-06-22T03:11:53;27.13;;;20.85;;
28246;SDS011;66191;53.178;22.058;2023-06-22T03:14:29;24.70;;;20.40;;
28246;SDS011;66191;53.178;22.058;2023-06-22T03:17:04;29.08;;;24.40;;
28246;SDS011;66191;53.178;22.058;2023-06-22T03:19:36;28.25;;;21.30;;
28246;SDS011;66191;53.178;22.058;2023-06-22T03:22:08;25.05;;;21.55;;
28246;SDS011;66191;53.178;22.058;2023-06-22T03:24:40;23.17;;;20.67;;
28246;SDS011;66191;53.178;22.058;2023-06-22T03:27:12;25.65;;;21.30;;
28246;SDS011;66191;53.178;22.058;2023-06-22T03:29:43;30.13;;;21.65;;
28246;SDS011;66191;53.178;22.058;2023-06-22T03:32:17;26.52;;;23.10;;
28246;SDS011;66191;53.178;22.058;2023-06-22T03:34:48;30.73;;;24.38;;
28246;SDS011;66191;53.178;22.058;2023-06-22T03:37:20;27.38;;;22.65;;
28246;SDS011;66191;53.178;22.058;2023-06-22T03:39:51;26.70;;;22.05;;
28246;SDS011;66191;53.178;22.058;2023-06-22T03:42:22;28.13;;;23.50;;
28246;SDS011;66191;53.178;22.058;2023-06-22T03:44:53;25.98;;;23.17;;
28246;SDS011;66191;53.178;22.058;2023-06-22T03:47:28;35.30;;;24.38;;
28246;SDS011;66191;53.178;22.058;2023-06-22T03:49:59;28.10;;;22.73;;
28246;SDS011;66191;53.178;22.058;2023-06-22T03:52:31;29.60;;;22.70;;
28246;SDS011;66191;53.178;22.058;2023-06-22T03:55:02;23.88;;;21.38;;
28246;SDS011;66191;53.178;22.058;2023-06-22T03:57:34;27.77;;;22.50;;
28246;SDS011;66191;53.178;22.058;2023-06-22T04:00:06;34.10;;;24.20;;
28246;SDS011;66191;53.178;22.058;2023-06-22T04:02:43;29.95;;;23.30;;
28246;SDS011;66191;53.178;22.058;2023-06-22T04:05:14;32.75;;;24.13;;
28246;SDS011;66191;53.178;22.058;2023-06-22T04:07:46;35.75;;;25.48;;
28246;SDS011;66191;53.178;22.058;2023-06-22T04:10:18;31.63;;;21.60;;
28246;SDS011;66191;53.178;22.058;2023-06-22T04:12:49;24.35;;;18.55;;
28246;SDS011;66191;53.178;22.058;2023-06-22T04:15:21;23.88;;;19.25;;
28246;SDS011;66191;53.178;22.058;2023-06-22T04:17:55;28.67;;;21.23;;
28246;SDS011;66191;53.178;22.058;2023-06-22T04:20:27;29.30;;;22.88;;
28246;SDS011;66191;53.178;22.058;2023-06-22T04:22:59;31.52;;;22.30;;
28246;SDS011;66191;53.178;22.058;2023-06-22T04:25:31;27.40;;;21.15;;
28246;SDS011;66191;53.178;22.058;2023-06-22T04:28:03;31.60;;;22.90;;
28246;SDS011;66191;53.178;22.058;2023-06-22T04:30:39;29.52;;;22.15;;
28246;SDS011;66191;53.178;22.058;2023-06-22T04:33:17;30.83;;;22.48;;
28246;SDS011;66191;53.178;22.058;2023-06-22T04:35:48;29.08;;;24.10;;
28246;SDS011;66191;53.178;22.058;2023-06-22T04:38:22;30.73;;;22.40;;
28246;SDS011;66191;53.178;22.058;2023-06-22T04:40:54;31.35;;;21.13;;
28246;SDS011;66191;53.178;22.058;2023-06-22T04:43:25;34.42;;;23.58;;
28246;SDS011;66191;53.178;22.058;2023-06-22T04:45:57;27.33;;;20.85;;
28246;SDS011;66191;53.178;22.058;2023-06-22T04:48:33;27.88;;;21.65;;
28246;SDS011;66191;53.178;22.058;2023-06-22T04:51:05;27.85;;;21.42;;
28246;SDS011;66191;53.178;22.058;2023-06-22T04:53:36;25.30;;;20.98;;
28246;SDS011;66191;53.178;22.058;2023-06-22T04:56:08;23.98;;;21.35;;
28246;SDS011;66191;53.178;22.058;2023-06-22T04:58:39;28.33;;;24.10;;
28246;SDS011;66191;53.178;22.058;2023-06-22T05:01:10;25.33;;;21.30;;
28246;SDS011;66191;53.178;22.058;2023-06-22T05:03:44;30.33;;;23.58;;
28246;SDS011;66191;53.178;22.058;2023-06-22T05:06:16;28.75;;;24.38;;
28246;SDS011;66191;53.178;22.058;2023-06-22T05:08:48;29.45;;;24.80;;
28246;SDS011;66191;53.178;22.058;2023-06-22T05:11:19;26.70;;;23.83;;
28246;SDS011;66191;53.178;22.058;2023-06-22T05:13:51;33.58;;;27.85;;
28246;SDS011;66191;53.178;22.058;2023-06-22T05:16:22;32.75;;;25.10;;
28246;SDS011;66191;53.178;22.058;2023-06-22T05:18:58;27.80;;;24.80;;
28246;SDS011;66191;53.178;22.058;2023-06-22T05:21:31;35.08;;;27.95;;
28246;SDS011;66191;53.178;22.058;2023-06-22T05:24:03;28.90;;;24.67;;
28246;SDS011;66191;53.178;22.058;2023-06-22T05:26:35;31.33;;;27.15;;
28246;SDS011;66191;53.178;22.058;2023-06-22T05:29:06;30.15;;;25.55;;
28246;SDS011;66191;53.178;22.058;2023-06-22T05:31:38;30.55;;;27.23;;
28246;SDS011;66191;53.178;22.058;2023-06-22T05:34:12;33.05;;;27.67;;
28246;SDS011;66191;53.178;22.058;2023-06-22T05:36:47;28.83;;;25.73;;
28246;SDS011;66191;53.178;22.058;2023-06-22T05:39:22;32.08;;;28.60;;
28246;SDS011;66191;53.178;22.058;2023-06-22T05:41:53;31.33;;;28.00;;
28246;SDS011;66191;53.178;22.058;2023-06-22T05:44:25;32.55;;;27.33;;
28246;SDS011;66191;53.178;22.058;2023-06-22T05:46:56;31.85;;;28.35;;
28246;SDS011;66191;53.178;22.058;2023-06-22T05:49:30;49.03;;;32.80;;
28246;SDS011;66191;53.178;22.058;2023-06-22T05:52:02;43.55;;;28.60;;
28246;SDS011;66191;53.178;22.058;2023-06-22T05:54:34;36.85;;;27.75;;
28246;SDS011;66191;53.178;22.058;2023-06-22T05:57:06;36.67;;;27.13;;
28246;SDS011;66191;53.178;22.058;2023-06-22T05:59:37;39.10;;;30.20;;
28246;SDS011;66191;53.178;22.058;2023-06-22T06:02:09;32.70;;;28.60;;
28246;SDS011;66191;53.178;22.058;2023-06-22T06:04:43;41.97;;;31.10;;
28246;SDS011;66191;53.178;22.058;2023-06-22T06:07:14;36.63;;;32.45;;
28246;SDS011;66191;53.178;22.058;2023-06-22T06:09:46;40.10;;;31.52;;
28246;SDS011;66191;53.178;22.058;2023-06-22T06:12:17;34.53;;;30.27;;
28246;SDS011;66191;53.178;22.058;2023-06-22T06:14:48;42.08;;;30.38;;
28246;SDS011;66191;53.178;22.058;2023-06-22T06:17:20;36.28;;;29.95;;
28246;SDS011;66191;53.178;22.058;2023-06-22T06:19:54;36.17;;;28.63;;
28246;SDS011;66191;53.178;22.058;2023-06-22T06:22:25;41.42;;;32.55;;
28246;SDS011;66191;53.178;22.058;2023-06-22T06:24:57;38.78;;;31.55;;
28246;SDS011;66191;53.178;22.058;2023-06-22T06:27:28;31.70;;;27.33;;
28246;SDS011;66191;53.178;22.058;2023-06-22T06:30:03;38.85;;;28.40;;
28246;SDS011;66191;53.178;22.058;2023-06-22T06:32:35;36.83;;;28.38;;
28246;SDS011;66191;53.178;22.058;2023-06-22T06:35:10;44.15;;;30.98;;
28246;SDS011;66191;53.178;22.058;2023-06-22T06:37:43;34.22;;;29.65;;
28246;SDS011;66191;53.178;22.058;2023-06-22T06:40:16;37.50;;;30.15;;
28246;SDS011;66191;53.178;22.058;2023-06-22T06:42:48;41.67;;;31.85;;
28246;SDS011;66191;53.178;22.058;2023-06-22T06:45:21;33.08;;;28.95;;
28246;SDS011;66191;53.178;22.058;2023-06-22T06:47:52;34.83;;;30.60;;
28246;SDS011;66191;53.178;22.058;2023-06-22T06:50:27;34.15;;;27.90;;
28246;SDS011;66191;53.178;22.058;2023-06-22T06:52:59;35.83;;;30.55;;
28246;SDS011;66191;53.178;22.058;2023-06-22T06:55:30;37.42;;;30.35;;
28246;SDS011;66191;53.178;22.058;2023-06-22T06:58:01;32.60;;;29.17;;
28246;SDS011;66191;53.178;22.058;2023-06-22T07:00:35;34.58;;;30.80;;
28246;SDS011;66191;53.178;22.058;2023-06-22T07:03:06;33.08;;;28.98;;
28246;SDS011;66191;53.178;22.058;2023-06-22T07:05:40;35.40;;;30.50;;
28246;SDS011;66191;53.178;22.058;2023-06-22T07:08:11;35.05;;;29.88;;
28246;SDS011;66191;53.178;22.058;2023-06-22T07:10:42;35.40;;;30.02;;
28246;SDS011;66191;53.178;22.058;2023-06-22T07:13:13;33.60;;;28.55;;
28246;SDS011;66191;53.178;22.058;2023-06-22T07:15:45;31.02;;;27.60;;
28246;SDS011;66191;53.178;22.058;2023-06-22T07:18:16;32.83;;;27.90;;
28246;SDS011;66191;53.178;22.058;2023-06-22T07:20:50;38.65;;;28.83;;
28246;SDS011;66191;53.178;22.058;2023-06-22T07:23:21;31.65;;;27.02;;
28246;SDS011;66191;53.178;22.058;2023-06-22T07:25:53;30.85;;;27.55;;
28246;SDS011;66191;53.178;22.058;2023-06-22T07:28:24;31.25;;;27.13;;
28246;SDS011;66191;53.178;22.058;2023-06-22T07:30:56;32.15;;;27.55;;
28246;SDS011;66191;53.178;22.058;2023-06-22T07:33:27;30.25;;;25.85;;
28246;SDS011;66191;53.178;22.058;2023-06-22T07:36:01;30.25;;;24.85;;
28246;SDS011;66191;53.178;22.058;2023-06-22T07:38:35;27.25;;;24.45;;
28246;SDS011;66191;53.178;22.058;2023-06-22T07:41:07;28.52;;;25.38;;
28246;SDS011;66191;53.178;22.058;2023-06-22T07:43:38;31.05;;;25.73;;
28246;SDS011;66191;53.178;22.058;2023-06-22T07:46:09;30.85;;;26.77;;
28246;SDS011;66191;53.178;22.058;2023-06-22T07:48:40;27.23;;;24.17;;
28246;SDS011;66191;53.178;22.058;2023-06-22T07:51:14;25.40;;;21.38;;
28246;SDS011;66191;53.178;22.058;2023-06-22T07:53:45;23.27;;;20.85;;
28246;SDS011;66191;53.178;22.058;2023-06-22T07:56:17;23.55;;;20.98;;
28246;SDS011;66191;53.178;22.058;2023-06-22T07:58:49;24.90;;;22.17;;
28246;SDS011;66191;53.178;22.058;2023-06-22T08:01:21;31.40;;;22.25;;
28246;SDS011;66191;53.178;22.058;2023-06-22T08:03:53;31.05;;;23.67;;
28246;SDS011;66191;53.178;22.058;2023-06-22T08:06:29;25.10;;;22.40;;
28246;SDS011;66191;53.178;22.058;2023-06-22T08:09:03;28.05;;;23.02;;
28246;SDS011;66191;53.178;22.058;2023-06-22T08:11:35;25.17;;;22.30;;
28246;SDS011;66191;53.178;22.058;2023-06-22T08:14:06;34.45;;;23.92;;
28246;SDS011;66191;53.178;22.058;2023-06-22T08:16:37;30.67;;;22.85;;
28246;SDS011;66191;53.178;22.058;2023-06-22T08:19:10;34.40;;;23.52;;
28246;SDS011;66191;53.178;22.058;2023-06-22T08:21:45;29.10;;;23.35;;
28246;SDS011;66191;53.178;22.058;2023-06-22T08:24:16;28.67;;;21.50;;
28246;SDS011;66191;53.178;22.058;2023-06-22T08:26:47;24.77;;;20.05;;
28246;SDS011;66191;53.178;22.058;2023-06-22T08:29:19;25.40;;;20.48;;
28246;SDS011;66191;53.178;22.058;2023-06-22T08:31:51;24.40;;;18.40;;
28246;SDS011;66191;53.178;22.058;2023-06-22T08:34:22;23.20;;;18.70;;
28246;SDS011;66191;53.178;22.058;2023-06-22T08:36:58;25.15;;;18.50;;
28246;SDS011;66191;53.178;22.058;2023-06-22T08:39:33;19.85;;;17.13;;
28246;SDS011;66191;53.178;22.058;2023-06-22T08:42:05;20.90;;;17.90;;
28246;SDS011;66191;53.178;22.058;2023-06-22T08:44:40;22.48;;;17.50;;
28246;SDS011;66191;53.178;22.058;2023-06-22T08:47:11;18.30;;;15.98;;
28246;SDS011;66191;53.178;22.058;2023-06-22T08:49:42;18.20;;;15.57;;
28246;SDS011;66191;53.178;22.058;2023-06-22T08:52:17;16.30;;;14.63;;
28246;SDS011;66191;53.178;22.058;2023-06-22T08:54:50;18.92;;;15.07;;
28246;SDS011;66191;53.178;22.058;2023-06-22T08:57:22;17.50;;;14.43;;
28246;SDS011;66191;53.178;22.058;2023-06-22T08:59:53;21.55;;;15.55;;
28246;SDS011;66191;53.178;22.058;2023-06-22T09:02:28;19.13;;;15.75;;
28246;SDS011;66191;53.178;22.058;2023-06-22T09:05:03;21.00;;;14.73;;
28246;SDS011;66191;53.178;22.058;2023-06-22T09:07:38;18.10;;;13.93;;
28246;SDS011;66191;53.178;22.058;2023-06-22T09:10:09;16.40;;;12.98;;
28246;SDS011;66191;53.178;22.058;2023-06-22T09:12:41;20.10;;;12.70;;
28246;SDS011;66191;53.178;22.058;2023-06-22T09:15:12;16.42;;;13.13;;
28246;SDS011;66191;53.178;22.058;2023-06-22T09:17:45;13.57;;;11.85;;
28246;SDS011;66191;53.178;22.058;2023-06-22T09:20:16;15.00;;;11.82;;
28246;SDS011;66191;53.178;22.058;2023-06-22T09:22:50;13.95;;;10.70;;
28246;SDS011;66191;53.178;22.058;2023-06-22T09:25:21;18.00;;;11.25;;
28246;SDS011;66191;53.178;22.058;2023-06-22T09:27:53;19.50;;;11.93;;
28246;SDS011;66191;53.178;22.058;2023-06-22T09:30:24;13.95;;;11.02;;
28246;SDS011;66191;53.178;22.058;2023-06-22T09:32:56;14.90;;;11.43;;
28246;SDS011;66191;53.178;22.058;2023-06-22T09:35:28;16.42;;;10.93;;
28246;SDS011;66191;53.178;22.058;2023-06-22T09:38:02;13.68;;;10.40;;
28246;SDS011;66191;53.178;22.058;2023-06-22T09:40:33;13.90;;;10.13;;
28246;SDS011;66191;53.178;22.058;2023-06-22T09:43:08;13.43;;;9.85;;
28246;SDS011;66191;53.178;22.058;2023-06-22T09:45:39;13.02;;;10.43;;
28246;SDS011;66191;53.178;22.058;2023-06-22T09:48:10;12.07;;;10.05;;
28246;SDS011;66191;53.178;22.058;2023-06-22T09:50:41;13.52;;;9.35;;
28246;SDS011;66191;53.178;22.058;2023-06-22T09:53:15;12.68;;;9.25;;
28246;SDS011;66191;53.178;22.058;2023-06-22T09:55:46;12.00;;;9.77;;
28246;SDS011;66191;53.178;22.058;2023-06-22T09:58:17;15.40;;;9.85;;
28246;SDS011;66191;53.178;22.058;2023-06-22T10:00:48;11.60;;;9.77;;
28246;SDS011;66191;53.178;22.058;2023-06-22T10:03:20;11.32;;;10.07;;
28246;SDS011;66191;53.178;22.058;2023-06-22T10:05:52;15.48;;;11.07;;
28246;SDS011;66191;53.178;22.058;2023-06-22T10:08:26;15.82;;;10.00;;
28246;SDS011;66191;53.178;22.058;2023-06-22T10:10:57;13.40;;;9.88;;
28246;SDS011;66191;53.178;22.058;2023-06-22T10:13:28;10.77;;;8.75;;
28246;SDS011;66191;53.178;22.058;2023-06-22T10:16:02;12.23;;;9.32;;
28246;SDS011;66191;53.178;22.058;2023-06-22T10:18:34;16.95;;;8.80;;
28246;SDS011;66191;53.178;22.058;2023-06-22T10:21:05;11.35;;;8.60;;
28246;SDS011;66191;53.178;22.058;2023-06-22T10:23:39;14.85;;;8.68;;
28246;SDS011;66191;53.178;22.058;2023-06-22T10:26:10;11.18;;;7.75;;
28246;SDS011;66191;53.178;22.058;2023-06-22T10:28:42;13.98;;;8.15;;
28246;SDS011;66191;53.178;22.058;2023-06-22T10:31:13;10.05;;;8.60;;
28246;SDS011;66191;53.178;22.058;2023-06-22T10:33:45;11.00;;;8.48;;
28246;SDS011;66191;53.178;22.058;2023-06-22T10:36:16;12.55;;;9.07;;
28246;SDS011;66191;53.178;22.058;2023-06-22T10:38:50;12.27;;;8.60;;
28246;SDS011;66191;53.178;22.058;2023-06-22T10:41:22;14.80;;;9.20;;
28246;SDS011;66191;53.178;22.058;2023-06-22T10:43:56;12.52;;;8.48;;
28246;SDS011;66191;53.178;22.058;2023-06-22T10:46:27;12.75;;;8.70;;
28246;SDS011;66191;53.178;22.058;2023-06-22T10:48:59;11.75;;;8.93;;
28246;SDS011;66191;53.178;22.058;2023-06-22T10:51:30;11.25;;;8.65;;
28246;SDS011;66191;53.178;22.058;2023-06-22T10:54:04;14.55;;;8.88;;
28246;SDS011;66191;53.178;22.058;2023-06-22T10:56:36;12.43;;;9.15;;
28246;SDS011;66191;53.178;22.058;2023-06-22T10:59:07;13.40;;;8.43;;
28246;SDS011;66191;53.178;22.058;2023-06-22T11:01:38;11.48;;;9.18;;
28246;SDS011;66191;53.178;22.058;2023-06-22T11:04:10;14.10;;;8.50;;
28246;SDS011;66191;53.178;22.058;2023-06-22T11:06:41;13.85;;;8.20;;
28246;SDS011;66191;53.178;22.058;2023-06-22T11:09:15;9.80;;;8.32;;
28246;SDS011;66191;53.178;22.058;2023-06-22T11:11:53;9.95;;;7.88;;
28246;SDS011;66191;53.178;22.058;2023-06-22T11:14:27;10.00;;;7.88;;
28246;SDS011;66191;53.178;22.058;2023-06-22T11:16:59;7.97;;;7.10;;
28246;SDS011;66191;53.178;22.058;2023-06-22T11:19:30;11.25;;;7.47;;
28246;SDS011;66191;53.178;22.058;2023-06-22T11:22:02;11.65;;;6.78;;
28246;SDS011;66191;53.178;22.058;2023-06-22T11:24:36;7.72;;;6.93;;
28246;SDS011;66191;53.178;22.058;2023-06-22T11:27:07;9.18;;;6.80;;
28246;SDS011;66191;53.178;22.058;2023-06-22T11:29:38;9.98;;;7.18;;
28246;SDS011;66191;53.178;22.058;2023-06-22T11:32:09;9.07;;;7.35;;
28246;SDS011;66191;53.178;22.058;2023-06-22T11:34:42;9.30;;;8.00;;
28246;SDS011;66191;53.178;22.058;2023-06-22T11:37:13;11.00;;;7.95;;
28246;SDS011;66191;53.178;22.058;2023-06-22T11:39:47;13.07;;;8.48;;
28246;SDS011;66191;53.178;22.058;2023-06-22T11:42:32;11.55;;;7.82;;
28246;SDS011;66191;53.178;22.058;2023-06-22T11:45:04;10.13;;;7.50;;
28246;SDS011;66191;53.178;22.058;2023-06-22T11:47:36;9.85;;;7.53;;
28246;SDS011;66191;53.178;22.058;2023-06-22T11:50:08;9.48;;;7.60;;
28246;SDS011;66191;53.178;22.058;2023-06-22T11:52:40;8.77;;;7.20;;
28246;SDS011;66191;53.178;22.058;2023-06-22T11:55:14;7.43;;;6.50;;
28246;SDS011;66191;53.178;22.058;2023-06-22T11:57:54;12.10;;;8.30;;
28246;SDS011;66191;53.178;22.058;2023-06-22T12:00:28;10.38;;;7.88;;
28246;SDS011;66191;53.178;22.058;2023-06-22T12:03:16;9.93;;;7.72;;
28246;SDS011;66191;53.178;22.058;2023-06-22T12:05:52;9.43;;;7.70;;
28246;SDS011;66191;53.178;22.058;2023-06-22T12:08:23;10.48;;;7.22;;
28246;SDS011;66191;53.178;22.058;2023-06-22T12:10:57;9.65;;;6.72;;
28246;SDS011;66191;53.178;22.058;2023-06-22T12:13:29;7.97;;;5.85;;
28246;SDS011;66191;53.178;22.058;2023-06-22T12:16:00;9.07;;;6.55;;
28246;SDS011;66191;53.178;22.058;2023-06-22T12:18:32;7.65;;;6.70;;
28246;SDS011;66191;53.178;22.058;2023-06-22T12:21:03;7.82;;;6.47;;
28246;SDS011;66191;53.178;22.058;2023-06-22T12:23:46;7.72;;;6.35;;
28246;SDS011;66191;53.178;22.058;2023-06-22T12:26:20;7.28;;;6.00;;
28246;SDS011;66191;53.178;22.058;2023-06-22T12:28:54;9.45;;;6.50;;
28246;SDS011;66191;53.178;22.058;2023-06-22T12:31:26;7.60;;;6.57;;
28246;SDS011;66191;53.178;22.058;2023-06-22T12:33:57;7.97;;;6.30;;
28246;SDS011;66191;53.178;22.058;2023-06-22T12:36:30;9.45;;;6.45;;
28246;SDS011;66191;53.178;22.058;2023-06-22T12:39:03;9.55;;;6.80;;
28246;SDS011;66191;53.178;22.058;2023-06-22T12:41:37;9.63;;;6.75;;
28246;SDS011;66191;53.178;22.058;2023-06-22T12:44:11;7.07;;;6.32;;
28246;SDS011;66191;53.178;22.058;2023-06-22T12:46:42;9.55;;;6.63;;
28246;SDS011;66191;53.178;22.058;2023-06-22T12:49:13;9.40;;;6.57;;
28246;SDS011;66191;53.178;22.058;2023-06-22T12:51:45;7.78;;;6.10;;
28246;SDS011;66191;53.178;22.058;2023-06-22T12:54:17;8.60;;;5.70;;
28246;SDS011;66191;53.178;22.058;2023-06-22T12:56:51;9.70;;;5.80;;
28246;SDS011;66191;53.178;22.058;2023-06-22T12:59:27;6.68;;;5.68;;
28246;SDS011;66191;53.178;22.058;2023-06-22T13:01:58;7.38;;;5.43;;
28246;SDS011;66191;53.178;22.058;2023-06-22T13:04:29;6.70;;;6.05;;
28246;SDS011;66191;53.178;22.058;2023-06-22T13:07:01;7.60;;;6.00;;
28246;SDS011;66191;53.178;22.058;2023-06-22T13:09:46;10.70;;;6.20;;
28246;SDS011;66191;53.178;22.058;2023-06-22T13:12:22;9.27;;;5.72;;
28246;SDS011;66191;53.178;22.058;2023-06-22T13:14:53;9.40;;;6.38;;
28246;SDS011;66191;53.178;22.058;2023-06-22T13:17:25;9.90;;;6.50;;
28246;SDS011;66191;53.178;22.058;2023-06-22T13:19:57;7.72;;;6.30;;
28246;SDS011;66191;53.178;22.058;2023-06-22T13:22:29;9.35;;;6.05;;
28246;SDS011;66191;53.178;22.058;2023-06-22T13:25:08;10.32;;;6.20;;
28246;SDS011;66191;53.178;22.058;2023-06-22T13:27:43;11.23;;;6.50;;
28246;SDS011;66191;53.178;22.058;2023-06-22T13:30:14;8.40;;;5.53;;
28246;SDS011;66191;53.178;22.058;2023-06-22T13:32:45;6.20;;;5.50;;
28246;SDS011;66191;53.178;22.058;2023-06-22T13:35:17;10.93;;;6.35;;
28246;SDS011;66191;53.178;22.058;2023-06-22T13:37:49;7.85;;;5.95;;
28246;SDS011;66191;53.178;22.058;2023-06-22T13:40:22;6.97;;;5.68;;
28246;SDS011;66191;53.178;22.058;2023-06-22T13:42:56;6.95;;;6.22;;
28246;SDS011;66191;53.178;22.058;2023-06-22T13:45:27;9.50;;;6.15;;
28246;SDS011;66191;53.178;22.058;2023-06-22T13:47:59;10.55;;;6.13;;
28246;SDS011;66191;53.178;22.058;2023-06-22T13:50:30;10.38;;;6.00;;
28246;SDS011;66191;53.178;22.058;2023-06-22T13:53:01;6.85;;;5.40;;
28246;SDS011;66191;53.178;22.058;2023-06-22T13:55:32;6.15;;;5.38;;
28246;SDS011;66191;53.178;22.058;2023-06-22T13:58:06;6.72;;;5.40;;
28246;SDS011;66191;53.178;22.058;2023-06-22T14:00:37;6.00;;;5.40;;
28246;SDS011;66191;53.178;22.058;2023-06-22T14:03:11;6.40;;;5.45;;
28246;SDS011;66191;53.178;22.058;2023-06-22T14:05:44;8.63;;;4.75;;
28246;SDS011;66191;53.178;22.058;2023-06-22T14:08:15;6.32;;;5.13;;
28246;SDS011;66191;53.178;22.058;2023-06-22T14:11:07;8.10;;;5.70;;
28246;SDS011;66191;53.178;22.058;2023-06-22T14:13:41;6.60;;;4.90;;
28246;SDS011;66191;53.178;22.058;2023-06-22T14:16:12;9.27;;;4.55;;
28246;SDS011;66191;53.178;22.058;2023-06-22T14:18:44;7.63;;;4.80;;
28246;SDS011;66191;53.178;22.058;2023-06-22T14:21:15;8.63;;;4.13;;
28246;SDS011;66191;53.178;22.058;2023-06-22T14:23:47;5.72;;;4.22;;
28246;SDS011;66191;53.178;22.058;2023-06-22T14:26:18;6.15;;;4.70;;
28246;SDS011;66191;53.178;22.058;2023-06-22T14:28:52;7.47;;;4.78;;
28246;SDS011;66191;53.178;22.058;2023-06-22T14:31:24;5.45;;;3.88;;
28246;SDS011;66191;53.178;22.058;2023-06-22T14:33:56;5.40;;;4.32;;
28246;SDS011;66191;53.178;22.058;2023-06-22T14:36:27;9.57;;;4.55;;
28246;SDS011;66191;53.178;22.058;2023-06-22T14:38:59;8.68;;;3.97;;
28246;SDS011;66191;53.178;22.058;2023-06-22T14:41:30;7.88;;;4.45;;
28246;SDS011;66191;53.178;22.058;2023-06-22T14:44:05;5.40;;;4.38;;
28246;SDS011;66191;53.178;22.058;2023-06-22T14:46:35;4.18;;;3.78;;
28246;SDS011;66191;53.178;22.058;2023-06-22T14:49:10;5.55;;;4.03;;